createdAt,value
2023-04-11T00:01:41.335Z,100290.05
2023-04-11T00:04:13.335Z,100283.33
2023-04-11T00:06:43.993Z,100275.09
2023-04-11T00:09:16.719Z,100273.35
2023-04-11T00:11:48.119Z,100273.33
2023-04-11T00:14:19.066Z,100270.20
2023-04-11T00:16:53.857Z,100266.91
2023-04-11T00:19:25.660Z,100262.08
2023-04-11T00:21:58.231Z,100258.94
2023-04-11T00:24:29.066Z,100260.77
2023-04-11T00:26:59.489Z,100261.91
2023-04-11T00:29:30.166Z,100260.68
2023-04-11T00:32:01.048Z,100257.56
2023-04-11T00:34:31.778Z,100255.98
2023-04-11T00:37:02.665Z,100248.23
2023-04-11T00:39:35.110Z,100245.65
2023-04-11T00:42:09.985Z,100242.55
2023-04-11T00:44:40.470Z,100243.05
2023-04-11T00:47:11.312Z,100240.98
2023-04-11T00:49:42.476Z,100237.40
2023-04-11T00:52:13.779Z,100235.84
2023-04-11T00:54:44.438Z,100231.20
2023-04-11T00:57:15.734Z,100227.23
2023-04-11T00:59:48.426Z,100223.25
2023-04-11T01:02:19.396Z,100215.35
2023-04-11T01:04:51.052Z,100208.08
2023-04-11T01:07:23.748Z,100208.41
2023-04-11T01:09:56.299Z,100207.52
2023-04-11T01:12:27.161Z,100207.64
2023-04-11T01:14:58.508Z,100202.11
2023-04-11T01:17:29.257Z,100201.89
2023-04-11T01:20:00.120Z,100202.54
2023-04-11T01:22:31.740Z,100201.49
2023-04-11T01:25:03.296Z,100203.17
2023-04-11T01:27:34.453Z,100197.83
2023-04-11T01:30:05.790Z,100189.41
2023-04-11T01:32:37.799Z,100185.63
2023-04-11T01:35:11.448Z,100186.98
2023-04-11T01:37:42.286Z,100181.30
2023-04-11T01:40:14.436Z,100179.23
2023-04-11T01:42:46.516Z,100169.08
2023-04-11T01:45:17.748Z,100166.98
2023-04-11T01:47:50.872Z,100156.83
2023-04-11T01:50:21.676Z,100155.60
2023-04-11T01:52:52.858Z,100145.45
2023-04-11T01:55:23.647Z,100142.69
2023-04-11T01:57:54.084Z,100140.40
2023-04-11T02:00:25.362Z,100135.73
2023-04-11T02:02:55.995Z,100135.88
2023-04-11T02:05:26.709Z,100135.34
2023-04-11T02:07:59.511Z,100134.09
2023-04-11T02:10:30.098Z,100127.70
2023-04-11T02:13:00.758Z,100119.42
2023-04-11T02:15:31.318Z,100117.16
2023-04-11T02:18:01.967Z,100112.16
2023-04-11T02:20:32.757Z,100108.67
2023-04-11T02:23:04.586Z,100103.00
2023-04-11T02:25:35.147Z,100093.02
2023-04-11T02:28:07.944Z,100086.50
2023-04-11T02:30:38.929Z,100077.91
2023-04-11T02:33:09.400Z,100075.51
2023-04-11T02:35:39.844Z,100075.13
2023-04-11T02:38:10.290Z,100076.11
2023-04-11T02:40:40.763Z,100078.64
2023-04-11T02:43:11.229Z,100080.17
2023-04-11T02:45:42.316Z,100083.73
2023-04-11T02:48:12.951Z,100089.52
2023-04-11T02:50:48.224Z,100087.23
2023-04-11T02:53:18.792Z,100088.75
2023-04-11T02:55:51.850Z,100079.46
2023-04-11T02:58:25.865Z,100078.45
2023-04-11T03:00:57.288Z,100075.19
2023-04-11T03:03:28.089Z,100064.91
2023-04-11T03:05:58.679Z,100060.60
2023-04-11T03:08:29.203Z,100055.77
2023-04-11T03:10:59.710Z,100057.31
2023-04-11T03:13:30.572Z,100054.71
2023-04-11T03:16:01.105Z,100050.08
2023-04-11T03:18:32.427Z,100045.44
2023-04-11T03:21:07.548Z,100042.33
2023-04-11T03:23:38.394Z,100039.57
2023-04-11T03:26:09.451Z,100036.96
2023-04-11T03:28:39.892Z,100031.95
2023-04-11T03:31:11.820Z,100030.03
2023-04-11T03:33:41.075Z,100024.88
2023-04-11T03:36:12.597Z,100023.30
2023-04-11T03:38:43.332Z,100024.48
2023-04-11T03:41:13.894Z,100026.01
2023-04-11T03:43:45.536Z,100018.95
2023-04-11T03:46:16.270Z,100010.88
2023-04-11T03:48:49.133Z,100001.63
2023-04-11T03:51:20.281Z,100000.77
2023-04-11T03:53:58.484Z,99991.17
2023-04-11T03:56:47.077Z,99992.36
2023-04-11T03:59:22.715Z,99991.48
2023-04-11T04:02:00.461Z,99988.04
2023-04-11T04:04:32.460Z,99986.30
2023-04-11T04:07:18.146Z,99983.00
2023-04-11T04:09:48.795Z,99974.77
2023-04-11T04:12:19.812Z,99970.81
2023-04-11T04:15:11.323Z,99967.70
2023-04-11T04:17:42.039Z,99965.81
2023-04-11T04:20:16.260Z,99967.18
2023-04-11T04:22:47.727Z,99965.47
2023-04-11T04:25:20.140Z,99967.16
2023-04-11T04:27:54.039Z,99972.30
2023-04-11T04:30:28.745Z,99982.90
2023-04-11T04:33:12.446Z,99988.55
2023-04-11T04:35:44.558Z,99984.41
2023-04-11T04:38:17.866Z,99983.02
2023-04-11T04:40:54.904Z,99976.50
2023-04-11T04:43:27.392Z,99960.08
2023-04-11T04:46:01.389Z,99951.49
2023-04-11T04:48:37.295Z,99947.19
2023-04-11T04:51:09.821Z,99943.89
2023-04-11T04:53:41.046Z,99940.96
2023-04-11T04:56:13.677Z,99938.88
2023-04-11T04:58:47.604Z,99941.40
2023-04-11T05:01:20.589Z,99948.91
2023-04-11T05:03:59.229Z,99951.29
2023-04-11T05:06:45.631Z,99947.65
2023-04-11T05:09:16.947Z,99946.44
2023-04-11T05:11:47.559Z,99942.52
2023-04-11T05:14:18.406Z,99938.40
2023-04-11T05:16:48.933Z,99934.14
2023-04-11T05:19:19.602Z,99929.17
2023-04-11T05:21:51.555Z,99917.34
2023-04-11T05:24:22.077Z,99910.32
2023-04-11T05:26:53.035Z,99905.86
2023-04-11T05:29:24.168Z,99904.48
2023-04-11T05:31:54.679Z,99899.70
2023-04-11T05:34:25.141Z,99894.04
2023-04-11T05:36:56.528Z,99882.59
2023-04-11T05:39:27.004Z,99874.02
2023-04-11T05:41:57.820Z,99865.47
2023-04-11T05:44:28.252Z,99857.27
2023-04-11T05:46:59.309Z,99853.15
2023-04-11T05:49:29.754Z,99848.37
2023-04-11T05:52:00.233Z,99845.27
2023-04-11T05:54:36.241Z,99839.98
2023-04-11T05:57:07.721Z,99833.33
2023-04-11T05:59:38.225Z,99828.23
2023-04-11T06:02:09.137Z,99826.16
2023-04-11T06:04:40.000Z,99823.09
2023-04-11T06:07:11.025Z,99816.77
2023-04-11T06:09:42.623Z,99803.27
2023-04-11T06:12:13.102Z,99800.02
2023-04-11T06:14:43.574Z,99801.39
2023-04-11T06:17:14.056Z,99803.11
2023-04-11T06:19:44.480Z,99798.66
2023-04-11T06:22:15.017Z,99797.12
2023-04-11T06:24:46.244Z,99799.86
2023-04-11T06:27:16.992Z,99803.96
2023-04-11T06:29:47.410Z,99806.02
2023-04-11T06:32:17.869Z,99804.83
2023-04-11T06:34:48.371Z,99797.83
2023-04-11T06:37:18.899Z,99790.66
2023-04-11T06:39:49.373Z,99790.86
2023-04-11T06:42:19.838Z,99787.98
2023-04-11T06:44:51.211Z,99784.59
2023-04-11T06:47:21.891Z,99781.02
2023-04-11T06:49:52.547Z,99774.21
2023-04-11T06:52:23.032Z,99769.29
2023-04-11T06:54:53.487Z,99769.11
2023-04-11T06:57:23.923Z,99763.30
2023-04-11T06:59:54.508Z,99763.30
2023-04-11T07:02:25.909Z,99762.63
2023-04-11T07:04:57.067Z,99760.08
2023-04-11T07:07:27.717Z,99760.60
2023-04-11T07:09:58.354Z,99754.79
2023-04-11T07:12:28.949Z,99756.83
2023-04-11T07:14:59.425Z,99756.48
2023-04-11T07:17:29.928Z,99764.54
2023-04-11T07:20:00.516Z,99770.20
2023-04-11T07:22:31.181Z,99766.45
2023-04-11T07:25:01.746Z,99763.39
2023-04-11T07:27:33.192Z,99754.34
2023-04-11T07:30:03.817Z,99750.60
2023-04-11T07:32:34.377Z,99754.55
2023-04-11T07:35:05.298Z,99750.63
2023-04-11T07:37:36.251Z,99753.54
2023-04-11T07:40:11.787Z,99749.61
2023-04-11T07:42:42.724Z,99746.05
2023-04-11T07:45:13.558Z,99739.23
2023-04-11T07:47:44.199Z,99727.10
2023-04-11T07:50:15.443Z,99726.61
2023-04-11T07:52:45.906Z,99720.16
2023-04-11T07:55:16.698Z,99713.00
2023-04-11T07:57:47.232Z,99710.59
2023-04-11T08:00:23.960Z,99708.21
2023-04-11T08:02:54.527Z,99704.49
2023-04-11T08:05:25.702Z,99700.93
2023-04-11T08:07:56.497Z,99695.65
2023-04-11T08:10:27.221Z,99699.77
2023-04-11T08:12:58.629Z,99691.92
2023-04-11T08:15:29.235Z,99686.48
2023-04-11T08:17:59.730Z,99687.55
2023-04-11T08:20:30.575Z,99684.84
2023-04-11T08:23:06.258Z,99688.27
2023-04-11T08:25:36.898Z,99688.29
2023-04-11T08:28:09.919Z,99674.80
2023-04-11T08:30:40.429Z,99668.16
2023-04-11T08:33:12.252Z,99668.72
2023-04-11T08:35:43.517Z,99672.65
2023-04-11T08:38:14.454Z,99672.50
2023-04-11T08:40:44.914Z,99661.59
2023-04-11T08:43:15.488Z,99653.40
2023-04-11T08:45:45.948Z,99654.98
2023-04-11T08:48:16.523Z,99650.86
2023-04-11T08:50:47.049Z,99648.67
2023-04-11T08:53:21.520Z,99647.66
2023-04-11T08:55:52.262Z,99647.18
2023-04-11T08:58:23.948Z,99642.59
2023-04-11T09:00:54.480Z,99642.08
2023-04-11T09:03:25.071Z,99637.65
2023-04-11T09:05:57.349Z,99632.91
2023-04-11T09:08:40.442Z,99631.59
2023-04-11T09:11:11.105Z,99620.70
2023-04-11T09:13:41.509Z,99618.50
2023-04-11T09:16:14.682Z,99623.36
2023-04-11T09:18:47.203Z,99618.95
2023-04-11T09:21:20.191Z,99620.88
2023-04-11T09:23:50.638Z,99618.67
2023-04-11T09:26:30.633Z,99610.68
2023-04-11T09:29:01.466Z,99606.58
2023-04-11T09:31:43.943Z,99601.45
2023-04-11T09:34:24.431Z,99592.92
2023-04-11T09:36:58.315Z,99582.14
2023-04-11T09:39:29.638Z,99579.43
2023-04-11T09:42:00.862Z,99581.69
2023-04-11T09:44:41.132Z,99576.73
2023-04-11T09:47:11.664Z,99571.96
2023-04-11T09:49:43.320Z,99573.34
2023-04-11T09:52:14.350Z,99570.27
2023-04-11T09:54:45.486Z,99564.10
2023-04-11T09:57:16.429Z,99567.02
2023-04-11T09:59:47.486Z,99573.91
2023-04-11T10:02:17.961Z,99581.98
2023-04-11T10:04:48.763Z,99581.30
2023-04-11T10:07:19.505Z,99582.68
2023-04-11T10:09:50.421Z,99580.64
2023-04-11T10:12:35.308Z,99586.16
2023-04-11T10:15:11.008Z,99592.67
2023-04-11T10:17:42.005Z,99598.69
2023-04-11T10:20:50.377Z,99604.36
2023-04-11T10:23:21.234Z,99604.89
2023-04-11T10:25:53.750Z,99608.48
2023-04-11T10:28:39.211Z,99609.70
2023-04-11T10:31:13.463Z,99611.77
2023-04-11T10:34:14.705Z,99609.88
2023-04-11T10:37:06.117Z,99610.40
2023-04-11T10:40:10.305Z,99609.23
2023-04-11T10:42:42.569Z,99610.44
2023-04-11T10:45:24.651Z,99608.02
2023-04-11T10:48:07.886Z,99606.14
2023-04-11T10:50:43.959Z,99610.61
2023-04-11T10:53:38.564Z,99620.39
2023-04-11T10:56:09.760Z,99627.92
2023-04-11T10:58:41.704Z,99624.32
2023-04-11T11:01:31.482Z,99626.91
2023-04-11T11:04:03.839Z,99634.10
2023-04-11T11:06:40.100Z,99641.30
2023-04-11T11:09:24.455Z,99646.27
2023-04-11T11:12:12.495Z,99644.86
2023-04-11T11:14:44.315Z,99649.98
2023-04-11T11:17:16.238Z,99655.62
2023-04-11T11:19:48.456Z,99663.98
2023-04-11T11:22:25.772Z,99678.71
2023-04-11T11:25:08.276Z,99680.56
2023-04-11T11:27:38.993Z,99680.86
2023-04-11T11:30:15.812Z,99673.11
2023-04-11T11:32:46.304Z,99673.46
2023-04-11T11:35:16.828Z,99679.44
2023-04-11T11:37:47.834Z,99683.02
2023-04-11T11:40:19.106Z,99693.63
2023-04-11T11:42:51.105Z,99691.17
2023-04-11T11:45:23.407Z,99684.05
2023-04-11T11:47:54.053Z,99688.80
2023-04-11T11:50:33.431Z,99689.98
2023-04-11T11:53:14.950Z,99688.38
2023-04-11T11:55:45.981Z,99692.59
2023-04-11T11:58:17.406Z,99697.53
2023-04-11T12:00:51.286Z,99706.92
2023-04-11T12:03:25.329Z,99706.69
2023-04-11T12:05:58.354Z,99708.04
2023-04-11T12:08:34.174Z,99711.09
2023-04-11T12:11:11.456Z,99710.86
2023-04-11T12:13:41.897Z,99707.25
2023-04-11T12:16:14.129Z,99718.88
2023-04-11T12:18:45.399Z,99721.42
2023-04-11T12:21:17.780Z,99718.33
2023-04-11T12:23:48.201Z,99725.14
2023-04-11T12:26:20.171Z,99721.71
2023-04-11T12:28:51.334Z,99712.52
2023-04-11T12:31:22.503Z,99706.39
2023-04-11T12:33:52.951Z,99703.65
2023-04-11T12:36:23.450Z,99699.89
2023-04-11T12:38:53.988Z,99698.86
2023-04-11T12:41:32.359Z,99690.46
2023-04-11T12:44:04.199Z,99689.27
2023-04-11T12:46:34.643Z,99685.16
2023-04-11T12:49:05.485Z,99683.98
2023-04-11T12:51:35.993Z,99685.08
2023-04-11T12:54:06.856Z,99678.77
2023-04-11T12:56:37.274Z,99680.02
2023-04-11T12:59:07.831Z,99677.67
2023-04-11T13:01:38.770Z,99671.52
2023-04-11T13:04:09.408Z,99668.63
2023-04-11T13:06:40.972Z,99662.28
2023-04-11T13:09:13.412Z,99653.71
2023-04-11T13:11:44.079Z,99650.60
2023-04-11T13:14:14.537Z,99645.46
2023-04-11T13:16:48.458Z,99642.55
2023-04-11T13:19:19.080Z,99643.58
2023-04-11T13:21:49.948Z,99649.90
2023-04-11T13:24:20.598Z,99659.36
2023-04-11T13:26:51.104Z,99662.64
2023-04-11T13:29:21.515Z,99667.11
2023-04-11T13:31:52.017Z,99672.60
2023-04-11T13:34:22.546Z,99681.71
2023-04-11T13:36:53.014Z,99691.98
2023-04-11T13:39:23.482Z,99705.48
2023-04-11T13:41:53.918Z,99710.44
2023-04-11T13:44:24.493Z,99711.95
2023-04-11T13:46:55.044Z,99713.45
2023-04-11T13:49:25.675Z,99711.89
2023-04-11T13:51:56.305Z,99705.30
2023-04-11T13:54:27.032Z,99699.29
2023-04-11T13:56:59.226Z,99697.89
2023-04-11T13:59:30.019Z,99698.88
2023-04-11T14:02:00.779Z,99698.16
2023-04-11T14:04:31.866Z,99699.38
2023-04-11T14:07:02.466Z,99697.83
2023-04-11T14:09:33.004Z,99700.91
2023-04-11T14:12:03.851Z,99701.60
2023-04-11T14:14:34.371Z,99700.92
2023-04-11T14:17:04.988Z,99696.80
2023-04-11T14:19:35.734Z,99694.57
2023-04-11T14:22:06.328Z,99690.47
2023-04-11T14:24:36.902Z,99684.48
2023-04-11T14:27:08.547Z,99685.71
2023-04-11T14:29:39.268Z,99683.67
2023-04-11T14:32:10.459Z,99683.50
2023-04-11T14:34:41.568Z,99684.69
2023-04-11T14:37:12.104Z,99688.48
2023-04-11T14:39:42.637Z,99691.92
2023-04-11T14:42:13.231Z,99689.72
2023-04-11T14:44:43.779Z,99688.02
2023-04-11T14:47:14.510Z,99689.57
2023-04-11T14:49:45.286Z,99686.65
2023-04-11T14:52:15.793Z,99689.23
2023-04-11T14:54:46.410Z,99687.34
2023-04-11T14:57:16.918Z,99687.35
2023-04-11T14:59:48.627Z,99685.51
2023-04-11T15:02:19.329Z,99680.05
2023-04-11T15:04:50.090Z,99678.69
2023-04-11T15:07:22.356Z,99682.30
2023-04-11T15:09:52.967Z,99685.77
2023-04-11T15:12:23.385Z,99682.70
2023-04-11T15:14:53.935Z,99686.64
2023-04-11T15:17:24.405Z,99684.90
2023-04-11T15:19:54.854Z,99686.26
2023-04-11T15:22:26.535Z,99692.27
2023-04-11T15:24:56.994Z,99689.05
2023-04-11T15:27:27.557Z,99690.10
2023-04-11T15:29:59.650Z,99691.52
2023-04-11T15:32:28.686Z,99688.98
2023-04-11T15:34:59.422Z,99692.41
2023-04-11T15:37:30.024Z,99704.40
2023-04-11T15:40:01.056Z,99703.35
2023-04-11T15:42:33.948Z,99700.73
2023-04-11T15:45:05.011Z,99697.98
2023-04-11T15:47:35.546Z,99697.97
2023-04-11T15:50:07.405Z,99694.70
2023-04-11T15:52:37.889Z,99693.98
2023-04-11T15:55:10.323Z,99693.95
2023-04-11T15:57:41.120Z,99688.63
2023-04-11T16:00:15.599Z,99684.17
2023-04-11T16:02:47.871Z,99683.61
2023-04-11T16:05:20.887Z,99680.66
2023-04-11T16:07:51.777Z,99681.36
2023-04-11T16:10:22.588Z,99683.61
2023-04-11T16:12:53.335Z,99684.98
2023-04-11T16:15:23.850Z,99687.73
2023-04-11T16:17:54.602Z,99690.99
2023-04-11T16:20:26.350Z,99697.66
2023-04-11T16:22:56.766Z,99697.48
2023-04-11T16:25:27.407Z,99699.67
2023-04-11T16:27:57.966Z,99697.61
2023-04-11T16:30:28.569Z,99700.34
2023-04-11T16:32:59.070Z,99698.27
2023-04-11T16:35:29.663Z,99695.01
2023-04-11T16:38:00.738Z,99701.68
2023-04-11T16:40:31.902Z,99697.20
2023-04-11T16:43:02.392Z,99698.89
2023-04-11T16:45:33.536Z,99700.93
2023-04-11T16:48:06.590Z,99699.39
2023-04-11T16:50:37.238Z,99695.25
2023-04-11T16:53:07.703Z,99699.19
2023-04-11T16:55:38.215Z,99703.64
2023-04-11T16:58:10.429Z,99700.86
2023-04-11T17:00:40.893Z,99706.15
2023-04-11T17:03:11.497Z,99710.08
2023-04-11T17:05:42.340Z,99709.03
2023-04-11T17:08:13.447Z,99715.16
2023-04-11T17:10:44.215Z,99718.61
2023-04-11T17:13:15.982Z,99728.20
2023-04-11T17:15:47.028Z,99737.27
2023-04-11T17:18:17.518Z,99737.45
2023-04-11T17:20:49.091Z,99737.95
2023-04-11T17:23:26.161Z,99742.22
2023-04-11T17:26:02.622Z,99742.16
2023-04-11T17:28:33.992Z,99739.23
2023-04-11T17:31:11.092Z,99742.45
2023-04-11T17:33:42.143Z,99748.77
2023-04-11T17:36:14.017Z,99750.83
2023-04-11T17:38:45.439Z,99750.13
2023-04-11T17:41:15.989Z,99754.70
2023-04-11T17:43:46.485Z,99756.23
2023-04-11T17:46:17.309Z,99760.83
2023-04-11T17:48:47.922Z,99761.31
2023-04-11T17:51:18.360Z,99767.64
2023-04-11T17:53:48.849Z,99771.21
2023-04-11T17:56:19.553Z,99775.46
2023-04-11T17:58:50.789Z,99782.80
2023-04-11T18:01:21.258Z,99780.52
2023-04-11T18:03:51.823Z,99787.35
2023-04-11T18:06:22.468Z,99807.02
2023-04-11T18:08:53.610Z,99820.66
2023-04-11T18:11:24.159Z,99824.66
2023-04-11T18:13:54.952Z,99823.70
2023-04-11T18:16:25.917Z,99833.51
2023-04-11T18:18:56.984Z,99836.68
2023-04-11T18:21:27.516Z,99842.19
2023-04-11T18:23:58.240Z,99846.24
2023-04-11T18:26:29.183Z,99845.86
2023-04-11T18:29:00.464Z,99848.75
2023-04-11T18:31:35.159Z,99851.35
2023-04-11T18:34:06.953Z,99849.02
2023-04-11T18:36:37.956Z,99845.94
2023-04-11T18:39:09.135Z,99842.16
2023-04-11T18:41:39.842Z,99834.30
2023-04-11T18:44:11.947Z,99835.52
2023-04-11T18:46:41.206Z,99831.46
2023-04-11T18:49:13.244Z,99834.93
2023-04-11T18:51:44.721Z,99839.80
2023-04-11T18:54:15.234Z,99839.14
2023-04-11T18:56:48.079Z,99847.40
2023-04-11T18:59:23.904Z,99848.48
2023-04-11T19:01:55.600Z,99846.48
2023-04-11T19:04:26.356Z,99845.64
2023-04-11T19:06:57.214Z,99850.11
2023-04-11T19:09:28.254Z,99851.52
2023-04-11T19:11:58.787Z,99853.75
2023-04-11T19:14:29.315Z,99849.44
2023-04-11T19:16:59.823Z,99855.71
2023-04-11T19:19:32.113Z,99852.58
2023-04-11T19:22:02.626Z,99847.64
2023-04-11T19:24:33.410Z,99844.73
2023-04-11T19:27:04.114Z,99844.98
2023-04-11T19:29:34.617Z,99841.17
2023-04-11T19:32:05.304Z,99841.48
2023-04-11T19:34:35.856Z,99838.52
2023-04-11T19:37:06.973Z,99845.02
2023-04-11T19:39:38.242Z,99847.52
2023-04-11T19:42:10.255Z,99845.09
2023-04-11T19:44:41.010Z,99845.55
2023-04-11T19:47:11.944Z,99847.36
2023-04-11T19:49:42.416Z,99844.21
2023-04-11T19:52:13.214Z,99841.59
2023-04-11T19:54:43.935Z,99842.52
2023-04-11T19:57:14.421Z,99844.16
2023-04-11T19:59:44.920Z,99845.15
2023-04-11T20:02:15.556Z,99845.98
2023-04-11T20:04:46.622Z,99845.44
2023-04-11T20:07:17.788Z,99845.58
2023-04-11T20:09:49.338Z,99845.77
2023-04-11T20:12:19.901Z,99847.02
2023-04-11T20:14:51.366Z,99846.38
2023-04-11T20:17:21.914Z,99853.02
2023-04-11T20:19:56.114Z,99851.63
2023-04-11T20:22:27.852Z,99854.86
2023-04-11T20:24:58.388Z,99855.72
2023-04-11T20:27:29.606Z,99859.60
2023-04-11T20:30:00.790Z,99861.42
2023-04-11T20:32:31.289Z,99863.45
2023-04-11T20:35:02.486Z,99864.61
2023-04-11T20:37:35.152Z,99867.49
2023-04-11T20:40:09.865Z,99869.91
2023-04-11T20:42:42.350Z,99860.54
2023-04-11T20:45:15.885Z,99863.77
2023-04-11T20:47:47.782Z,99875.59
2023-04-11T20:50:19.994Z,99877.01
2023-04-11T20:52:50.656Z,99879.59
2023-04-11T20:55:21.741Z,99883.98
2023-04-11T20:57:52.206Z,99878.83
2023-04-11T21:00:23.215Z,99883.76
2023-04-11T21:02:54.229Z,99881.34
2023-04-11T21:05:25.086Z,99884.23
2023-04-11T21:07:55.837Z,99881.64
2023-04-11T21:10:26.662Z,99880.11
2023-04-11T21:12:57.188Z,99884.36
2023-04-11T21:15:27.647Z,99880.90
2023-04-11T21:17:58.195Z,99883.08
2023-04-11T21:20:28.866Z,99876.71
2023-04-11T21:23:00.746Z,99880.77
2023-04-11T21:25:31.456Z,99877.68
2023-04-11T21:28:01.892Z,99877.98
2023-04-11T21:30:32.383Z,99877.49
2023-04-11T21:33:02.988Z,99878.87
2023-04-11T21:35:34.032Z,99879.71
2023-04-11T21:38:04.653Z,99878.36
2023-04-11T21:40:35.136Z,99883.65
2023-04-11T21:43:06.819Z,99883.64
2023-04-11T21:45:37.287Z,99885.27
2023-04-11T21:48:07.821Z,99884.73
2023-04-11T21:50:38.626Z,99882.80
2023-04-11T21:53:09.151Z,99881.22
2023-04-11T21:55:44.515Z,99878.13
2023-04-11T21:58:26.270Z,99875.88
2023-04-11T22:00:59.478Z,99876.35
2023-04-11T22:03:31.075Z,99878.36
2023-04-11T22:06:02.077Z,99879.02
2023-04-11T22:08:32.537Z,99883.24
2023-04-11T22:11:07.742Z,99882.52
2023-04-11T22:13:39.749Z,99890.35
2023-04-11T22:16:11.154Z,99891.15
2023-04-11T22:18:49.063Z,99894.32
2023-04-11T22:21:20.713Z,99894.56
2023-04-11T22:23:55.988Z,99897.58
2023-04-11T22:26:34.028Z,99898.55
2023-04-11T22:29:06.031Z,99899.85
2023-04-11T22:31:38.687Z,99908.75
2023-04-11T22:34:09.808Z,99906.52
2023-04-11T22:36:40.277Z,99906.18
2023-04-11T22:39:10.911Z,99908.69
2023-04-11T22:41:41.347Z,99909.00
2023-04-11T22:44:11.871Z,99909.17
2023-04-11T22:46:42.690Z,99908.15
2023-04-11T22:49:13.238Z,99910.86
2023-04-11T22:51:43.654Z,99908.79
2023-04-11T22:54:15.721Z,99911.65
2023-04-11T22:56:44.646Z,99906.16
2023-04-11T22:59:15.118Z,99908.15
2023-04-11T23:01:45.759Z,99910.88
2023-04-11T23:04:16.446Z,99910.71
2023-04-11T23:06:48.895Z,99910.70
2023-04-11T23:09:19.915Z,99907.08
2023-04-11T23:11:50.555Z,99904.16
2023-04-11T23:14:22.348Z,99903.86
2023-04-11T23:16:52.993Z,99903.00
2023-04-11T23:19:23.525Z,99900.77
2023-04-11T23:21:54.008Z,99900.55
2023-04-11T23:24:24.438Z,99897.44
2023-04-11T23:26:54.942Z,99898.62
2023-04-11T23:29:26.044Z,99894.71
2023-04-11T23:31:56.672Z,99890.96
2023-04-11T23:34:27.172Z,99889.95
2023-04-11T23:36:58.310Z,99883.60
2023-04-11T23:39:28.862Z,99879.79
2023-04-11T23:41:59.411Z,99879.73
2023-04-11T23:44:29.843Z,99873.91
2023-04-11T23:47:00.737Z,99871.48
2023-04-11T23:49:31.365Z,99871.13
2023-04-11T23:52:02.412Z,99872.46
2023-04-11T23:54:32.852Z,99868.49
2023-04-11T23:57:03.307Z,99871.70
2023-04-11T23:59:34.596Z,99871.85
